createdAt,value
2022-11-20T00:00:08.322Z,31.97
2022-11-20T00:02:34.610Z,30.27
2022-11-20T00:05:00.894Z,32.30
2022-11-20T00:07:27.276Z,37.63
2022-11-20T00:09:53.576Z,34.10
2022-11-20T00:12:19.858Z,34.20
2022-11-20T00:14:46.128Z,34.00
2022-11-20T00:17:12.545Z,30.40
2022-11-20T00:19:38.820Z,39.60
2022-11-20T00:22:05.163Z,32.30
2022-11-20T00:24:31.412Z,26.70
2022-11-20T00:26:57.675Z,32.57
2022-11-20T00:29:23.947Z,35.53
2022-11-20T00:31:50.230Z,30.37
2022-11-20T00:34:16.479Z,31.60
2022-11-20T00:36:42.753Z,25.67
2022-11-20T00:39:09.035Z,30.53
2022-11-20T00:41:35.333Z,33.70
2022-11-20T00:44:01.617Z,33.23
2022-11-20T00:46:28.842Z,29.60
2022-11-20T00:48:55.182Z,30.23
2022-11-20T00:51:23.375Z,28.93
2022-11-20T00:53:50.289Z,32.33
2022-11-20T00:56:17.658Z,30.83
2022-11-20T00:58:45.074Z,31.57
2022-11-20T01:01:14.554Z,31.97
2022-11-20T01:03:42.123Z,28.90
2022-11-20T01:06:12.724Z,27.93
2022-11-20T01:08:39.119Z,33.03
2022-11-20T01:11:07.854Z,30.70
2022-11-20T01:13:40.031Z,27.90
2022-11-20T01:16:10.601Z,40.43
2022-11-20T01:21:03.918Z,33.43
2022-11-20T01:23:36.755Z,41.73
2022-11-20T01:26:07.356Z,32.10
2022-11-20T01:28:34.150Z,39.27
2022-11-20T01:31:00.528Z,34.20
2022-11-20T01:33:27.197Z,33.90
2022-11-20T01:35:53.751Z,42.40
2022-11-20T01:38:23.612Z,29.93
2022-11-20T01:40:56.640Z,30.70
2022-11-20T01:43:23.463Z,30.43
2022-11-20T01:46:00.860Z,23.77
2022-11-20T01:48:43.795Z,37.27
2022-11-20T01:51:36.297Z,29.47
2022-11-20T01:54:05.432Z,30.77
2022-11-20T01:56:35.454Z,29.27
2022-11-20T01:59:02.873Z,33.47
2022-11-20T02:01:29.326Z,27.70
2022-11-20T02:03:55.837Z,28.03
2022-11-20T02:06:26.951Z,31.97
2022-11-20T02:08:53.582Z,31.20
2022-11-20T02:11:20.044Z,27.20
2022-11-20T02:13:46.618Z,28.87
2022-11-20T02:16:36.214Z,30.47
2022-11-20T02:19:03.230Z,34.47
2022-11-20T02:21:43.966Z,31.17
2022-11-20T02:24:20.151Z,26.67
2022-11-20T02:26:52.009Z,33.03
2022-11-20T02:29:20.795Z,30.97
2022-11-20T02:31:47.596Z,30.03
2022-11-20T02:34:13.858Z,37.30
2022-11-20T02:36:41.140Z,33.57
2022-11-20T02:39:07.592Z,30.97
2022-11-20T02:41:35.093Z,28.60
2022-11-20T02:44:01.881Z,31.40
2022-11-20T02:46:28.452Z,35.27
2022-11-20T02:48:54.777Z,25.50
2022-11-20T02:51:21.085Z,28.83
2022-11-20T02:53:47.405Z,30.50
2022-11-20T02:56:13.990Z,27.60
2022-11-20T02:58:40.277Z,31.10
2022-11-20T03:01:06.577Z,30.97
2022-11-20T03:03:32.936Z,29.80
2022-11-20T03:06:02.039Z,26.70
2022-11-20T03:08:29.224Z,30.20
2022-11-20T03:10:55.488Z,28.40
2022-11-20T03:13:21.797Z,31.33
2022-11-20T03:15:48.120Z,27.53
2022-11-20T03:18:14.750Z,28.43
2022-11-20T03:20:41.040Z,34.57
2022-11-20T03:23:07.321Z,29.10
2022-11-20T03:25:33.597Z,33.60
2022-11-20T03:27:59.878Z,30.20
2022-11-20T03:30:30.406Z,34.20
2022-11-20T03:32:57.192Z,32.67
2022-11-20T03:35:23.472Z,40.03
2022-11-20T03:37:49.753Z,36.70
2022-11-20T03:40:16.072Z,28.27
2022-11-20T03:42:48.114Z,30.60
2022-11-20T03:45:18.255Z,28.70
2022-11-20T03:47:45.164Z,30.30
2022-11-20T03:50:13.888Z,29.90
2022-11-20T03:52:40.384Z,32.33
2022-11-20T03:55:07.138Z,29.83
2022-11-20T03:57:33.484Z,32.70
2022-11-20T03:59:59.772Z,26.83
2022-11-20T04:02:26.061Z,27.00
2022-11-20T04:04:52.323Z,29.30
2022-11-20T04:07:18.713Z,30.00
2022-11-20T04:09:45.009Z,30.63
2022-11-20T04:12:11.268Z,36.77
2022-11-20T04:14:37.785Z,33.13
2022-11-20T04:17:04.690Z,30.67
2022-11-20T04:19:30.972Z,32.13
2022-11-20T04:21:57.269Z,27.67
2022-11-20T04:24:23.553Z,26.10
2022-11-20T04:26:49.822Z,35.60
2022-11-20T04:29:16.109Z,37.83
2022-11-20T04:31:42.406Z,33.07
2022-11-20T04:34:08.698Z,31.73
2022-11-20T04:36:35.477Z,29.70
2022-11-20T04:39:03.753Z,33.50
2022-11-20T04:41:31.537Z,29.57
2022-11-20T04:44:00.783Z,33.50
2022-11-20T04:46:28.005Z,31.47
2022-11-20T04:48:54.626Z,34.17
2022-11-20T04:51:20.933Z,31.67
2022-11-20T04:53:47.298Z,28.00
2022-11-20T04:56:14.118Z,27.87
2022-11-20T04:58:40.427Z,31.63
2022-11-20T05:01:14.278Z,33.40
2022-11-20T05:03:42.676Z,26.33
2022-11-20T05:06:09.805Z,26.47
2022-11-20T05:08:36.235Z,34.17
2022-11-20T05:11:04.034Z,31.50
2022-11-20T05:13:30.385Z,30.73
2022-11-20T05:15:56.782Z,32.93
2022-11-20T05:18:23.193Z,27.90
2022-11-20T05:20:55.426Z,30.87
2022-11-20T05:23:21.746Z,35.00
2022-11-20T05:25:48.458Z,34.57
2022-11-20T05:28:15.009Z,33.83
2022-11-20T05:30:41.269Z,30.87
2022-11-20T05:33:08.542Z,32.97
2022-11-20T05:35:34.823Z,38.77
2022-11-20T05:38:01.109Z,33.40
2022-11-20T05:40:27.503Z,34.97
2022-11-20T05:42:53.791Z,34.57
2022-11-20T05:45:20.072Z,38.03
2022-11-20T05:47:46.349Z,36.33
2022-11-20T05:50:12.722Z,34.43
2022-11-20T05:52:38.980Z,35.13
2022-11-20T05:55:05.470Z,29.63
2022-11-20T05:57:31.806Z,37.47
2022-11-20T05:59:58.101Z,40.17
2022-11-20T06:02:24.518Z,37.23
2022-11-20T06:04:50.848Z,29.00
2022-11-20T06:07:17.205Z,43.63
2022-11-20T06:09:43.601Z,38.47
2022-11-20T06:12:09.894Z,39.00
2022-11-20T06:14:36.180Z,34.83
2022-11-20T06:17:02.462Z,32.67
2022-11-20T06:19:28.839Z,36.83
2022-11-20T06:21:55.104Z,35.60
2022-11-20T06:24:21.412Z,32.70
2022-11-20T06:26:47.700Z,38.40
2022-11-20T06:29:13.996Z,32.57
2022-11-20T06:31:40.314Z,34.73
2022-11-20T06:34:07.174Z,37.53
2022-11-20T06:36:33.499Z,34.63
2022-11-20T06:39:00.236Z,33.83
2022-11-20T06:41:26.606Z,37.87
2022-11-20T06:43:53.099Z,34.40
2022-11-20T06:46:20.021Z,31.80
2022-11-20T06:48:46.662Z,38.57
2022-11-20T06:51:13.208Z,38.43
2022-11-20T06:53:39.758Z,35.23
2022-11-20T06:56:06.345Z,32.30
2022-11-20T06:58:33.852Z,32.30
2022-11-20T07:01:00.761Z,36.30
2022-11-20T07:03:27.105Z,35.63
2022-11-20T07:05:55.290Z,48.47
2022-11-20T07:08:21.568Z,33.93
2022-11-20T07:10:47.841Z,32.90
2022-11-20T07:13:14.613Z,35.77
2022-11-20T07:15:40.889Z,34.17
2022-11-20T07:18:07.282Z,42.40
2022-11-20T07:20:33.610Z,39.73
2022-11-20T07:22:59.945Z,38.33
2022-11-20T07:25:26.860Z,37.87
2022-11-20T07:27:53.426Z,35.43
2022-11-20T07:30:19.855Z,41.10
2022-11-20T07:32:51.753Z,35.43
2022-11-20T07:35:18.040Z,38.63
2022-11-20T07:37:44.391Z,39.90
2022-11-20T07:40:11.061Z,41.50
2022-11-20T07:42:37.336Z,41.70
2022-11-20T07:45:04.023Z,39.80
2022-11-20T07:47:35.596Z,41.23
2022-11-20T07:50:01.869Z,37.77
2022-11-20T07:52:28.143Z,38.63
2022-11-20T07:54:54.436Z,37.87
2022-11-20T07:57:25.564Z,39.63
2022-11-20T07:59:54.378Z,35.37
2022-11-20T08:02:20.637Z,34.03
2022-11-20T08:04:46.992Z,33.87
2022-11-20T08:07:13.327Z,40.23
2022-11-20T08:09:39.684Z,45.00
2022-11-20T08:12:24.586Z,32.80
2022-11-20T08:14:50.880Z,36.10
2022-11-20T08:17:17.183Z,44.67
2022-11-20T08:19:43.491Z,31.37
2022-11-20T08:22:09.760Z,37.13
2022-11-20T08:24:36.186Z,31.23
2022-11-20T08:27:02.466Z,30.40
2022-11-20T08:29:28.745Z,34.93
2022-11-20T08:31:55.014Z,24.67
2022-11-20T08:34:21.298Z,24.83
2022-11-20T08:36:47.577Z,29.67
2022-11-20T08:39:14.139Z,32.00
2022-11-20T08:41:40.464Z,38.27
2022-11-20T08:44:07.896Z,31.50
2022-11-20T08:46:38.410Z,29.30
2022-11-20T08:51:30.977Z,30.40
2022-11-20T08:53:57.257Z,23.97
2022-11-20T08:56:23.556Z,27.80
2022-11-20T09:01:37.314Z,29.93
2022-11-20T09:04:05.584Z,37.60
2022-11-20T09:06:31.885Z,26.07
2022-11-20T09:09:00.854Z,27.80
2022-11-20T09:11:28.369Z,27.13
2022-11-20T09:13:54.637Z,24.70
2022-11-20T09:16:21.033Z,25.95
2022-11-20T09:18:53.856Z,27.25
2022-11-20T09:21:24.932Z,27.23
2022-11-20T09:23:51.216Z,33.50
2022-11-20T09:26:17.503Z,24.37
2022-11-20T09:28:43.774Z,25.13
2022-11-20T09:31:16.709Z,28.40
2022-11-20T09:33:43.868Z,31.73
2022-11-20T09:36:10.169Z,30.10
2022-11-20T09:38:36.546Z,28.00
2022-11-20T09:41:06.773Z,25.05
2022-11-20T09:43:52.011Z,25.85
2022-11-20T09:46:26.000Z,29.58
2022-11-20T09:49:15.845Z,31.75
2022-11-20T09:51:51.396Z,22.60
2022-11-20T09:54:20.125Z,27.70
2022-11-20T09:56:48.740Z,28.88
2022-11-20T09:59:35.649Z,25.67
2022-11-20T10:02:02.902Z,27.25
2022-11-20T10:04:31.177Z,24.83
2022-11-20T10:07:31.896Z,24.05
2022-11-20T10:09:52.049Z,24.48
2022-11-20T10:12:21.436Z,26.67
2022-11-20T10:15:06.548Z,23.00
2022-11-20T10:17:38.917Z,23.65
2022-11-20T10:20:17.694Z,27.52
2022-11-20T10:23:02.560Z,25.77
2022-11-20T10:25:39.973Z,23.25
2022-11-20T10:28:12.410Z,24.23
2022-11-20T10:30:43.390Z,28.88
2022-11-20T10:33:50.182Z,26.38
2022-11-20T10:36:37.712Z,26.95
2022-11-20T10:39:11.984Z,25.70
2022-11-20T10:41:41.045Z,24.98
2022-11-20T10:44:15.914Z,23.33
2022-11-20T10:46:45.949Z,26.42
2022-11-20T10:49:13.950Z,18.08
2022-11-20T10:51:50.011Z,17.23
2022-11-20T10:54:35.157Z,18.33
2022-11-20T10:57:06.652Z,17.38
2022-11-20T10:59:52.213Z,15.40
2022-11-20T11:02:22.955Z,18.42
2022-11-20T11:04:55.512Z,17.77
2022-11-20T11:07:24.644Z,15.30
2022-11-20T11:09:52.892Z,17.27
2022-11-20T11:12:19.734Z,18.55
2022-11-20T11:14:50.452Z,18.27
2022-11-20T11:17:35.213Z,18.13
2022-11-20T11:20:02.914Z,16.05
2022-11-20T11:22:30.690Z,18.67
2022-11-20T11:24:56.998Z,17.70
2022-11-20T11:27:23.389Z,15.70
2022-11-20T11:29:49.681Z,14.55
2022-11-20T11:32:15.933Z,17.50
2022-11-20T11:34:42.289Z,18.83
2022-11-20T11:37:18.380Z,19.25
2022-11-20T11:39:45.425Z,18.25
2022-11-20T11:42:14.214Z,18.02
2022-11-20T11:45:03.446Z,20.80
2022-11-20T11:47:45.218Z,19.95
2022-11-20T11:50:28.249Z,17.95
2022-11-20T11:53:01.861Z,18.95
2022-11-20T11:55:28.192Z,20.70
2022-11-20T11:58:17.044Z,20.02
2022-11-20T12:00:48.749Z,21.00
2022-11-20T12:03:28.152Z,20.30
2022-11-20T12:06:11.014Z,20.10
2022-11-20T12:08:46.153Z,21.00
2022-11-20T12:11:27.724Z,19.50
2022-11-20T12:13:59.286Z,18.83
2022-11-20T12:16:25.622Z,27.02
2022-11-20T12:18:52.800Z,22.20
2022-11-20T12:21:21.248Z,24.30
2022-11-20T12:23:58.172Z,21.80
2022-11-20T12:26:41.633Z,24.65
2022-11-20T12:29:07.875Z,21.90
2022-11-20T12:31:47.531Z,20.05
2022-11-20T12:34:19.768Z,18.90
2022-11-20T12:36:51.890Z,21.80
2022-11-20T12:39:24.447Z,18.48
2022-11-20T12:42:15.901Z,19.40
2022-11-20T12:45:03.757Z,18.30
2022-11-20T12:47:30.030Z,20.38
2022-11-20T12:50:07.505Z,17.92
2022-11-20T12:52:33.805Z,20.25
2022-11-20T12:55:03.143Z,15.07
2022-11-20T12:57:37.633Z,18.70
2022-11-20T13:00:08.247Z,14.93
2022-11-20T13:02:41.154Z,15.13
2022-11-20T13:05:07.422Z,16.65
2022-11-20T13:07:35.185Z,15.27
2022-11-20T13:10:01.772Z,14.80
2022-11-20T13:12:40.729Z,13.75
2022-11-20T13:15:25.796Z,14.90
2022-11-20T13:17:54.850Z,15.57
2022-11-20T13:20:21.468Z,18.25
2022-11-20T13:23:00.855Z,15.20
2022-11-20T13:25:31.219Z,16.95
2022-11-20T13:27:58.758Z,18.80
2022-11-20T13:30:25.985Z,14.45
2022-11-20T13:33:14.982Z,12.02
2022-11-20T13:35:41.970Z,14.05
2022-11-20T13:38:08.273Z,13.35
2022-11-20T13:40:36.540Z,14.00
2022-11-20T13:43:08.157Z,16.20
2022-11-20T13:45:34.530Z,11.65
2022-11-20T13:48:05.773Z,14.45
2022-11-20T13:50:38.781Z,10.95
2022-11-20T13:53:21.329Z,15.20
2022-11-20T13:55:59.894Z,11.65
2022-11-20T13:58:35.493Z,13.40
2022-11-20T14:01:08.400Z,15.50
2022-11-20T14:04:04.677Z,11.13
2022-11-20T14:06:28.874Z,11.80
2022-11-20T14:08:55.624Z,17.23
2022-11-20T14:11:24.340Z,11.70
2022-11-20T14:13:59.931Z,12.18
2022-11-20T14:16:27.380Z,11.13
2022-11-20T14:18:54.290Z,11.82
2022-11-20T14:21:30.708Z,14.73
2022-11-20T14:24:06.813Z,16.20
2022-11-20T14:26:33.467Z,12.13
2022-11-20T14:29:00.088Z,18.23
2022-11-20T14:31:27.872Z,19.13
2022-11-20T14:33:55.307Z,13.05
2022-11-20T14:36:23.171Z,14.98
2022-11-20T14:38:49.791Z,15.07
2022-11-20T14:41:23.320Z,14.60
2022-11-20T14:43:52.158Z,11.60
2022-11-20T14:46:18.560Z,14.98
2022-11-20T14:48:44.800Z,12.98
2022-11-20T14:51:11.718Z,14.52
2022-11-20T14:53:38.077Z,13.48
2022-11-20T14:56:04.464Z,17.05
2022-11-20T14:58:32.891Z,15.85
2022-11-20T15:01:03.401Z,17.45
2022-11-20T15:03:33.576Z,16.55
2022-11-20T15:06:00.238Z,15.07
2022-11-20T15:08:26.792Z,15.73
2022-11-20T15:10:53.724Z,20.17
2022-11-20T15:13:27.610Z,15.73
2022-11-20T15:15:55.949Z,16.88
2022-11-20T15:18:23.728Z,17.00
2022-11-20T15:20:50.232Z,26.70
2022-11-20T15:23:19.367Z,21.35
2022-11-20T15:25:46.054Z,19.77
2022-11-20T15:28:21.483Z,25.48
2022-11-20T15:30:48.433Z,26.23
2022-11-20T15:33:15.284Z,27.88
2022-11-20T15:35:41.798Z,30.52
2022-11-20T15:38:08.159Z,24.80
2022-11-20T15:40:34.513Z,23.70
2022-11-20T15:43:06.803Z,20.05
2022-11-20T15:45:46.579Z,24.23
2022-11-20T15:48:23.995Z,27.25
2022-11-20T15:51:04.940Z,27.33
2022-11-20T15:53:31.314Z,25.35
2022-11-20T15:55:57.730Z,20.77
2022-11-20T15:58:25.105Z,28.65
2022-11-20T16:00:51.876Z,25.83
2022-11-20T16:03:18.687Z,26.70
2022-11-20T16:05:45.185Z,26.17
2022-11-20T16:08:12.070Z,29.10
2022-11-20T16:10:38.876Z,26.10
2022-11-20T16:13:23.912Z,24.08
2022-11-20T16:15:57.483Z,23.10
2022-11-20T16:18:23.752Z,23.00
2022-11-20T16:20:51.864Z,24.65
2022-11-20T16:23:18.827Z,25.70
2022-11-20T16:25:45.485Z,24.15
2022-11-20T16:28:17.417Z,20.00
2022-11-20T16:30:45.673Z,22.80
2022-11-20T16:33:15.960Z,17.70
2022-11-20T16:35:42.434Z,19.50
2022-11-20T16:38:08.788Z,19.17
2022-11-20T16:40:35.243Z,22.83
2022-11-20T16:43:11.522Z,25.50
2022-11-20T16:45:44.910Z,23.45
2022-11-20T16:48:21.238Z,20.35
2022-11-20T16:50:49.003Z,17.10
2022-11-20T16:53:15.582Z,16.50
2022-11-20T16:55:42.619Z,18.40
2022-11-20T16:58:09.362Z,20.65
2022-11-20T17:00:39.450Z,18.73
2022-11-20T17:03:06.308Z,17.67
2022-11-20T17:05:33.262Z,17.05
2022-11-20T17:07:59.754Z,19.35
2022-11-20T17:10:26.073Z,16.80
2022-11-20T17:12:52.356Z,13.23
2022-11-20T17:15:18.767Z,17.55
2022-11-20T17:17:45.031Z,13.15
2022-11-20T17:20:12.266Z,13.77
2022-11-20T17:22:38.606Z,17.20
2022-11-20T17:25:05.076Z,15.93
2022-11-20T17:27:31.347Z,18.85
2022-11-20T17:29:58.970Z,17.83
2022-11-20T17:32:25.248Z,14.07
2022-11-20T17:34:51.588Z,12.38
2022-11-20T17:37:17.974Z,12.60
2022-11-20T17:39:44.889Z,10.60
2022-11-20T17:42:29.963Z,11.60
2022-11-20T17:44:58.627Z,11.70
2022-11-20T17:47:25.028Z,12.13
2022-11-20T17:49:51.305Z,14.63
2022-11-20T17:52:17.628Z,14.27
2022-11-20T17:54:43.926Z,12.95
2022-11-20T17:57:28.707Z,13.55
2022-11-20T17:59:54.985Z,12.60
2022-11-20T18:02:21.353Z,17.15
2022-11-20T18:04:47.701Z,13.93
2022-11-20T18:07:14.044Z,12.05
2022-11-20T18:09:40.358Z,13.57
2022-11-20T18:12:06.754Z,12.70
2022-11-20T18:14:33.113Z,15.63
2022-11-20T18:17:01.523Z,14.40
2022-11-20T18:19:32.419Z,14.07
2022-11-20T18:22:01.292Z,16.48
2022-11-20T18:24:28.074Z,13.13
2022-11-20T18:26:54.350Z,16.48
2022-11-20T18:29:20.855Z,14.68
2022-11-20T18:31:47.888Z,15.20
2022-11-20T18:34:14.321Z,14.73
2022-11-20T18:36:42.253Z,17.55
2022-11-20T18:39:09.933Z,16.70
2022-11-20T18:41:55.136Z,17.10
2022-11-20T18:44:41.608Z,13.93
2022-11-20T18:47:14.118Z,22.00
2022-11-20T18:49:41.765Z,21.60
2022-11-20T18:52:08.123Z,21.85
2022-11-20T18:54:37.220Z,17.50
2022-11-20T18:57:04.203Z,22.83
2022-11-20T18:59:31.030Z,25.20
2022-11-20T19:01:57.716Z,24.80
2022-11-20T19:04:24.255Z,22.83
2022-11-20T19:06:52.771Z,22.63
2022-11-20T19:09:19.047Z,27.80
2022-11-20T19:11:45.351Z,25.73
2022-11-20T19:14:11.688Z,33.22
2022-11-20T19:16:38.258Z,27.00
2022-11-20T19:19:05.869Z,26.50
2022-11-20T19:21:32.921Z,33.03
2022-11-20T19:23:59.860Z,25.83
2022-11-20T19:26:26.721Z,30.63
2022-11-20T19:28:53.109Z,30.88
2022-11-20T19:31:24.481Z,32.97
2022-11-20T19:33:55.022Z,32.40
2022-11-20T19:36:25.652Z,27.85
2022-11-20T19:38:52.975Z,31.67
2022-11-20T19:41:29.644Z,36.63
2022-11-20T19:43:57.582Z,28.42
2022-11-20T19:46:24.265Z,28.08
2022-11-20T19:48:50.784Z,29.42
2022-11-20T19:51:18.852Z,30.90
2022-11-20T19:53:45.457Z,30.17
2022-11-20T19:56:12.030Z,37.20
2022-11-20T19:58:38.702Z,31.65
2022-11-20T20:01:06.086Z,31.55
2022-11-20T20:03:32.822Z,30.98
2022-11-20T20:06:06.375Z,29.27
2022-11-20T20:08:33.047Z,26.55
2022-11-20T20:10:59.826Z,30.52
2022-11-20T20:13:26.606Z,27.65
2022-11-20T20:15:53.209Z,32.58
2022-11-20T20:18:19.544Z,27.27
2022-11-20T20:20:45.861Z,31.15
2022-11-20T20:23:12.142Z,23.67
2022-11-20T20:25:38.460Z,32.65
2022-11-20T20:28:05.056Z,33.20
2022-11-20T20:30:31.421Z,30.13
2022-11-20T20:32:57.705Z,29.55
2022-11-20T20:35:23.964Z,30.65
2022-11-20T20:37:50.274Z,29.15
2022-11-20T20:40:16.824Z,31.30
2022-11-20T20:42:43.104Z,35.97
2022-11-20T20:45:11.098Z,38.20
2022-11-20T20:47:38.350Z,36.30
2022-11-20T20:50:05.695Z,35.92
2022-11-20T20:52:32.296Z,31.52
2022-11-20T20:54:58.676Z,33.35
2022-11-20T20:57:25.037Z,40.88
2022-11-20T20:59:52.505Z,31.30
2022-11-20T21:02:21.732Z,35.03
2022-11-20T21:04:48.064Z,28.05
2022-11-20T21:07:14.448Z,41.00
2022-11-20T21:09:40.765Z,31.75
2022-11-20T21:12:07.108Z,39.30
2022-11-20T21:14:33.451Z,38.92
2022-11-20T21:16:59.736Z,41.17
2022-11-20T21:19:26.160Z,33.88
2022-11-20T21:22:04.479Z,41.55
2022-11-20T21:24:34.802Z,33.80
2022-11-20T21:27:02.196Z,36.80
2022-11-20T21:29:29.125Z,36.60
2022-11-20T21:31:55.950Z,38.50
2022-11-20T21:34:23.161Z,39.28
2022-11-20T21:36:49.821Z,48.05
2022-11-20T21:39:16.457Z,42.47
2022-11-20T21:41:42.951Z,42.03
2022-11-20T21:44:41.590Z,40.65
2022-11-20T21:49:26.261Z,38.53
2022-11-20T21:51:53.683Z,47.90
2022-11-20T21:54:19.979Z,42.65
2022-11-20T21:56:46.310Z,48.85
2022-11-20T21:59:13.846Z,42.65
2022-11-20T22:01:40.481Z,43.50
2022-11-20T22:04:08.091Z,44.67
2022-11-20T22:06:34.568Z,48.42
2022-11-20T22:09:01.232Z,51.22
2022-11-20T22:11:27.557Z,44.80
2022-11-20T22:14:12.361Z,42.60
2022-11-20T22:16:38.684Z,52.80
2022-11-20T22:19:05.192Z,52.40
2022-11-20T22:21:31.904Z,44.83
2022-11-20T22:23:58.903Z,51.05
2022-11-20T22:26:29.751Z,36.92
2022-11-20T22:28:56.924Z,33.83
2022-11-20T22:31:23.999Z,37.10
2022-11-20T22:33:50.521Z,37.53
2022-11-20T22:36:18.250Z,37.75
2022-11-20T22:38:44.552Z,43.40
2022-11-20T22:41:19.089Z,45.88
2022-11-20T22:43:45.724Z,37.60
2022-11-20T22:46:16.359Z,41.42
2022-11-20T22:48:43.966Z,32.08
2022-11-20T22:51:11.838Z,40.38
2022-11-20T22:53:38.511Z,42.20
2022-11-20T22:56:06.740Z,35.35
2022-11-20T22:58:33.812Z,45.35
2022-11-20T23:01:07.427Z,37.80
2022-11-20T23:03:33.999Z,41.75
2022-11-20T23:06:00.666Z,39.25
2022-11-20T23:08:27.370Z,39.53
2022-11-20T23:10:58.083Z,45.53
2022-11-20T23:13:24.364Z,40.67
2022-11-20T23:15:50.628Z,41.58
2022-11-20T23:18:16.905Z,41.40
2022-11-20T23:20:43.208Z,44.72
2022-11-20T23:23:09.485Z,46.60
2022-11-20T23:25:35.745Z,41.47
2022-11-20T23:28:02.028Z,37.67
2022-11-20T23:30:28.313Z,35.15
2022-11-20T23:32:54.602Z,36.65
2022-11-20T23:35:20.961Z,38.35
2022-11-20T23:37:47.238Z,38.53
2022-11-20T23:40:13.548Z,37.60
2022-11-20T23:42:59.784Z,30.60
2022-11-20T23:45:26.112Z,28.98
2022-11-20T23:47:52.390Z,31.23
2022-11-20T23:50:18.713Z,33.58
2022-11-20T23:52:44.976Z,27.90
2022-11-20T23:55:11.252Z,26.75
2022-11-20T23:57:37.558Z,28.67
